Time;durP1;ratioP1;P1;durP2;ratioP2;P2;SDS_P1;SDS_P2;PMS_P1;PMS_P2;Temp;Humidity;BMP_temperature;BMP_pressure;BME280_temperature;BME280_humidity;BME280_pressure;Samples;Min_cycle;Max_cycle;Signal;HPM_P1;HPM_P2
2022/10/23 00:01:29;;;;;;;23.23;12.07;;;10.80;99.90;;;;;;6244504;23;20008;-85
2022/10/23 00:04:02;;;;;;;19.83;11.25;;;10.70;99.90;;;;;;6243321;23;20054;-85
2022/10/23 00:06:29;;;;;;;24.60;12.05;;;10.70;99.90;;;;;;6245032;22;20067;-85
2022/10/23 00:08:55;;;;;;;22.25;12.60;;;10.70;99.90;;;;;;6245752;22;20048;-84
2022/10/23 00:11:24;;;;;;;24.23;12.57;;;10.70;99.90;;;;;;6243156;23;20016;-84
2022/10/23 00:13:53;;;;;;;20.83;12.82;;;10.70;99.90;;;;;;6217750;23;20073;-85
2022/10/23 00:16:19;;;;;;;29.48;13.20;;;10.80;99.90;;;;;;6267943;22;20543;-85
2022/10/23 00:18:44;;;;;;;23.88;14.70;;;10.80;99.90;;;;;;6245216;22;20382;-85
2022/10/23 00:21:12;;;;;;;28.25;14.50;;;10.80;99.90;;;;;;6245396;23;20082;-85
2022/10/23 00:23:39;;;;;;;27.30;16.33;;;10.80;99.90;;;;;;6245376;22;20016;-85
2022/10/23 00:26:07;;;;;;;29.73;15.05;;;10.80;99.90;;;;;;6244717;22;20094;-85
2022/10/23 00:28:33;;;;;;;26.40;14.57;;;10.80;99.90;;;;;;6243216;23;20023;-85
2022/10/23 00:31:02;;;;;;;28.20;13.48;;;10.80;99.90;;;;;;6245835;22;20087;-85
2022/10/23 00:33:28;;;;;;;25.42;13.90;;;10.80;99.90;;;;;;6246389;22;20034;-84
2022/10/23 00:35:53;;;;;;;25.25;15.18;;;10.80;99.90;;;;;;6246042;22;20107;-84
2022/10/23 00:38:19;;;;;;;36.55;15.82;;;10.80;99.90;;;;;;6275898;22;20051;-85
2022/10/23 00:40:45;;;;;;;23.45;15.07;;;10.80;99.90;;;;;;6276898;22;20042;-85
2022/10/23 00:43:20;;;;;;;29.15;14.85;;;10.80;99.90;;;;;;6250244;22;20026;-84
2022/10/23 00:45:47;;;;;;;31.55;15.85;;;10.80;99.90;;;;;;6249474;22;20008;-85
2022/10/23 00:48:13;;;;;;;29.40;15.63;;;10.80;99.90;;;;;;6276335;22;20432;-83
2022/10/23 00:50:40;;;;;;;26.70;15.43;;;10.80;99.90;;;;;;6249335;22;20019;-84
2022/10/23 00:53:07;;;;;;;28.52;14.50;;;10.90;99.90;;;;;;6275355;22;20020;-85
2022/10/23 00:55:34;;;;;;;26.55;15.30;;;10.90;99.90;;;;;;6275936;22;20008;-85
2022/10/23 00:58:00;;;;;;;32.03;16.85;;;10.90;99.90;;;;;;6248203;22;20055;-85
2022/10/23 01:00:40;;;;;;;30.05;15.43;;;10.90;99.90;;;;;;6248499;22;20207;-85
2022/10/23 01:03:06;;;;;;;28.88;16.25;;;10.90;99.90;;;;;;6249985;22;20024;-85
2022/10/23 01:05:40;;;;;;;28.85;15.18;;;10.90;99.90;;;;;;6249402;22;20023;-84
2022/10/23 01:08:14;;;;;;;30.25;17.05;;;10.90;99.90;;;;;;6248563;22;20073;-85
2022/10/23 01:10:48;;;;;;;31.48;15.95;;;10.90;99.90;;;;;;6223443;22;20031;-83
2022/10/23 01:13:34;;;;;;;27.60;15.95;;;10.90;99.90;;;;;;6224183;22;20481;-84
2022/10/23 01:16:07;;;;;;;25.52;14.73;;;10.90;99.90;;;;;;6278452;22;20042;-85
2022/10/23 01:18:50;;;;;;;35.33;16.33;;;10.90;99.90;;;;;;6251905;22;20020;-85
2022/10/23 01:21:42;;;;;;;30.00;15.80;;;10.90;99.90;;;;;;6278706;22;20088;-84
2022/10/23 01:24:18;;;;;;;32.63;16.60;;;11.00;99.90;;;;;;6252129;22;20317;-85
2022/10/23 01:27:17;;;;;;;25.95;16.33;;;10.90;99.90;;;;;;6279270;22;20027;-85
2022/10/23 01:29:52;;;;;;;29.02;15.80;;;10.90;99.90;;;;;;6250872;22;20012;-85
2022/10/23 01:32:46;;;;;;;28.58;16.58;;;10.90;99.90;;;;;;6250884;22;20016;-84
2022/10/23 01:35:19;;;;;;;30.75;16.55;;;10.90;99.90;;;;;;6278666;22;20018;-85
2022/10/23 01:38:08;;;;;;;30.30;16.05;;;10.90;99.90;;;;;;6278270;22;20451;-85
2022/10/23 01:40:41;;;;;;;30.35;15.55;;;10.90;99.90;;;;;;6277722;22;20047;-85
2022/10/23 01:43:15;;;;;;;25.45;15.18;;;10.80;99.90;;;;;;6251397;22;20070;-85
2022/10/23 01:45:55;;;;;;;28.75;15.90;;;10.80;99.90;;;;;;6278783;22;20060;-84
2022/10/23 01:48:24;;;;;;;21.90;13.63;;;10.80;99.90;;;;;;6251701;22;20055;-84
2022/10/23 01:50:53;;;;;;;28.63;15.07;;;10.80;99.90;;;;;;6278605;22;20011;-85
2022/10/23 01:53:19;;;;;;;24.83;14.98;;;10.70;99.90;;;;;;6252510;22;20466;-85
2022/10/23 01:55:46;;;;;;;22.83;15.25;;;10.70;99.90;;;;;;6279940;22;20059;-84
2022/10/23 01:58:15;;;;;;;29.55;14.75;;;10.70;99.90;;;;;;6279429;22;20022;-85
2022/10/23 02:00:43;;;;;;;20.80;13.48;;;10.70;99.90;;;;;;6279765;22;20012;-85
2022/10/23 02:03:12;;;;;;;25.10;13.82;;;11.00;99.90;;;;;;6280421;22;20023;-85
2022/10/23 02:05:38;;;;;;;28.60;14.90;;;10.60;99.90;;;;;;6226605;22;20015;-85
2022/10/23 02:08:05;;;;;;;23.08;13.75;;;10.60;99.90;;;;;;6252393;22;20022;-86
2022/10/23 02:11:05;;;;;;;22.95;13.38;;;10.60;99.90;;;;;;6279139;22;20027;-84
2022/10/23 02:14:18;;;;;;;22.60;13.50;;;10.50;99.90;;;;;;6253006;22;20020;-85
2022/10/23 02:16:54;;;;;;;21.52;12.65;;;10.50;99.90;;;;;;6126721;23;20462;-84
2022/10/23 02:19:41;;;;;;;22.48;12.82;;;10.70;99.90;;;;;;6101925;23;20084;-85
2022/10/23 02:22:11;;;;;;;24.23;12.10;;;10.50;99.90;;;;;;6077719;23;20032;-84
2022/10/23 02:24:56;;;;;;;21.35;12.45;;;10.40;99.90;;;;;;6102368;23;20029;-84
2022/10/23 02:27:29;;;;;;;28.35;11.98;;;10.40;99.90;;;;;;6126527;23;20033;-85
2022/10/23 02:30:04;;;;;;;25.10;12.27;;;10.40;99.90;;;;;;6126012;23;20048;-84
2022/10/23 02:32:31;;;;;;;23.95;12.02;;;10.40;99.90;;;;;;6102103;23;20065;-85
2022/10/23 02:34:57;;;;;;;20.50;11.55;;;10.40;99.90;;;;;;6077403;23;20110;-85
2022/10/23 02:37:24;;;;;;;22.88;12.38;;;10.40;99.90;;;;;;6101179;23;20554;-85
2022/10/23 02:39:50;;;;;;;19.77;11.30;;;10.40;99.90;;;;;;6077299;23;20022;-85
2022/10/23 02:42:24;;;;;;;19.88;11.82;;;10.40;99.90;;;;;;6126092;23;20045;-84
2022/10/23 02:45:18;;;;;;;17.55;11.95;;;10.40;99.90;;;;;;6126388;23;20080;-84
2022/10/23 02:48:19;;;;;;;17.45;11.00;;;10.40;99.90;;;;;;6203394;22;20027;-85
2022/10/23 02:51:17;;;;;;;17.50;11.52;;;10.50;99.90;;;;;;6219031;22;20101;-85
2022/10/23 02:53:42;;;;;;;14.50;10.38;;;10.40;99.90;;;;;;6279603;22;20021;-85
2022/10/23 02:56:31;;;;;;;14.35;9.82;;;10.40;99.90;;;;;;6251727;22;20051;-85
2022/10/23 02:59:11;;;;;;;22.23;10.80;;;10.30;99.90;;;;;;6251898;22;20020;-85
2022/10/23 03:01:51;;;;;;;16.02;9.43;;;10.30;99.90;;;;;;6252398;22;20014;-85
2022/10/23 03:04:20;;;;;;;15.88;9.95;;;10.20;99.90;;;;;;6251649;22;20043;-85
2022/10/23 03:06:48;;;;;;;12.43;9.55;;;10.20;99.90;;;;;;6251341;22;20454;-84
2022/10/23 03:09:13;;;;;;;15.73;10.20;;;10.10;99.90;;;;;;6226402;22;20039;-84
2022/10/23 03:11:39;;;;;;;15.27;10.38;;;10.20;99.90;;;;;;6250577;22;20016;-85
2022/10/23 03:14:05;;;;;;;13.90;10.10;;;10.10;99.90;;;;;;6278490;22;20450;-84
2022/10/23 03:16:31;;;;;;;12.68;9.75;;;10.10;99.90;;;;;;6278702;22;20083;-84
2022/10/23 03:18:56;;;;;;;13.27;9.40;;;10.00;99.90;;;;;;6277338;22;20027;-83
2022/10/23 03:21:22;;;;;;;14.77;9.07;;;10.00;99.90;;;;;;6251689;22;20089;-84
2022/10/23 03:23:48;;;;;;;15.40;9.48;;;10.00;99.90;;;;;;6277761;22;20011;-85
2022/10/23 03:26:14;;;;;;;16.58;9.70;;;10.00;99.90;;;;;;6252930;22;20022;-85
2022/10/23 03:28:39;;;;;;;14.98;9.15;;;10.00;99.90;;;;;;6280494;22;20011;-85
2022/10/23 03:31:05;;;;;;;15.73;8.30;;;10.00;99.90;;;;;;6252744;22;20365;-85
2022/10/23 03:33:32;;;;;;;14.85;9.23;;;10.00;99.90;;;;;;6251935;22;20015;-85
2022/10/23 03:35:57;;;;;;;17.52;9.63;;;10.00;99.90;;;;;;6279735;22;20057;-85
2022/10/23 03:38:23;;;;;;;14.68;9.45;;;10.00;99.90;;;;;;6252329;22;20019;-85
2022/10/23 03:40:48;;;;;;;13.82;9.52;;;10.00;99.90;;;;;;6252198;22;20007;-84
2022/10/23 03:43:14;;;;;;;14.27;10.27;;;9.90;99.90;;;;;;6251670;22;20366;-85
2022/10/23 03:45:40;;;;;;;20.42;10.20;;;9.90;99.90;;;;;;6251816;22;20016;-84
2022/10/23 03:48:06;;;;;;;14.23;9.65;;;9.90;99.90;;;;;;6251766;22;20016;-85
2022/10/23 03:50:33;;;;;;;15.80;11.20;;;9.90;99.90;;;;;;6225526;22;20640;-85
2022/10/23 03:52:59;;;;;;;17.20;10.65;;;9.90;99.90;;;;;;6277568;22;20091;-85
2022/10/23 03:55:26;;;;;;;16.63;11.07;;;9.90;99.90;;;;;;6249507;22;20020;-85
2022/10/23 03:57:52;;;;;;;15.57;11.23;;;9.80;99.90;;;;;;6249828;22;20016;-85
2022/10/23 04:00:18;;;;;;;17.40;11.68;;;9.80;99.90;;;;;;6277334;22;20011;-85
2022/10/23 04:02:44;;;;;;;19.15;12.73;;;9.80;99.90;;;;;;6251164;22;20014;-85
2022/10/23 04:05:10;;;;;;;15.18;10.25;;;9.80;99.90;;;;;;6250397;22;20007;-84
2022/10/23 04:07:36;;;;;;;16.98;10.70;;;9.80;99.90;;;;;;6279028;22;20065;-85
2022/10/23 04:10:03;;;;;;;17.95;10.73;;;9.80;99.90;;;;;;6278354;22;20040;-85
2022/10/23 04:12:28;;;;;;;16.17;11.15;;;9.80;99.90;;;;;;6278719;22;20030;-85
2022/10/23 04:14:54;;;;;;;17.40;10.60;;;9.80;99.90;;;;;;6251343;22;20011;-85
2022/10/23 04:17:20;;;;;;;15.40;10.07;;;9.70;99.90;;;;;;6250563;22;20024;-84
2022/10/23 04:19:46;;;;;;;16.50;12.55;;;9.70;99.90;;;;;;6277721;22;20003;-84
2022/10/23 04:22:12;;;;;;;17.75;12.50;;;9.70;99.90;;;;;;6251186;22;20011;-85
2022/10/23 04:24:44;;;;;;;14.52;11.50;;;9.70;99.90;;;;;;6278794;22;20329;-85
2022/10/23 04:27:10;;;;;;;18.60;11.60;;;9.70;99.90;;;;;;6250743;22;20016;-85
2022/10/23 04:29:35;;;;;;;21.83;13.68;;;9.70;99.90;;;;;;6251381;22;20095;-85
2022/10/23 04:32:01;;;;;;;21.40;12.88;;;9.70;99.90;;;;;;6278245;22;20015;-85
2022/10/23 04:34:27;;;;;;;19.15;13.07;;;9.70;99.90;;;;;;6225445;22;20081;-85
2022/10/23 04:36:53;;;;;;;20.05;13.65;;;9.70;99.90;;;;;;6246006;23;20341;-85
2022/10/23 04:39:18;;;;;;;20.42;12.85;;;9.70;99.90;;;;;;6246690;23;20467;-85
2022/10/23 04:41:44;;;;;;;20.00;13.68;;;9.70;99.90;;;;;;6246500;23;20019;-84
2022/10/23 04:44:10;;;;;;;23.90;14.73;;;9.70;99.90;;;;;;6247408;22;20056;-85
2022/10/23 04:46:36;;;;;;;21.85;14.63;;;9.70;99.90;;;;;;6247032;23;20044;-86
2022/10/23 04:49:01;;;;;;;22.95;14.00;;;9.70;99.90;;;;;;6242968;23;20448;-82
2022/10/23 04:51:27;;;;;;;22.33;15.07;;;9.70;99.90;;;;;;6216291;23;20012;-83
2022/10/23 04:53:53;;;;;;;29.35;15.40;;;9.70;99.90;;;;;;6240638;23;20039;-84
2022/10/23 04:56:18;;;;;;;27.52;15.38;;;9.70;99.90;;;;;;6215214;23;20016;-82
2022/10/23 04:58:44;;;;;;;26.05;16.10;;;9.70;99.90;;;;;;6240428;23;20087;-84
2022/10/23 05:01:10;;;;;;;23.63;15.75;;;9.80;99.90;;;;;;6242213;23;20012;-84
2022/10/23 05:03:37;;;;;;;28.50;16.23;;;9.80;99.90;;;;;;6240077;23;20023;-83
2022/10/23 05:06:03;;;;;;;29.27;17.05;;;9.80;99.90;;;;;;6242378;22;20012;-84
2022/10/23 05:08:29;;;;;;;23.30;13.90;;;9.80;99.90;;;;;;6242595;22;20329;-84
2022/10/23 05:10:54;;;;;;;24.38;15.40;;;9.80;99.90;;;;;;6240846;23;20016;-84
2022/10/23 05:13:20;;;;;;;26.77;16.48;;;9.80;99.90;;;;;;6240966;23;20023;-83
2022/10/23 05:15:47;;;;;;;24.52;16.02;;;9.90;99.90;;;;;;6240873;23;20012;-84
2022/10/23 05:18:30;;;;;;;26.63;16.70;;;9.90;99.90;;;;;;6241206;23;20012;-84
2022/10/23 05:21:03;;;;;;;26.98;16.23;;;9.90;99.90;;;;;;6240822;22;20083;-84
2022/10/23 05:23:30;;;;;;;27.80;17.00;;;10.10;99.90;;;;;;6240611;23;20060;-84
2022/10/23 05:25:56;;;;;;;28.45;16.30;;;9.90;99.90;;;;;;6242454;22;20012;-84
2022/10/23 05:28:22;;;;;;;27.50;17.45;;;9.80;99.90;;;;;;6240471;23;20012;-84
2022/10/23 05:30:48;;;;;;;27.58;16.70;;;9.80;99.90;;;;;;6241769;23;20437;-84
2022/10/23 05:33:14;;;;;;;27.63;17.63;;;9.80;99.90;;;;;;6241236;23;20442;-84
2022/10/23 05:35:41;;;;;;;26.05;17.17;;;9.80;99.90;;;;;;6242976;23;20096;-84
2022/10/23 05:38:07;;;;;;;27.30;17.02;;;9.80;99.90;;;;;;6240667;23;20046;-84
2022/10/23 05:40:33;;;;;;;27.13;17.08;;;9.80;99.90;;;;;;6216589;23;20083;-83
2022/10/23 05:42:59;;;;;;;24.50;15.80;;;9.80;99.90;;;;;;6240533;23;20047;-84
2022/10/23 05:45:25;;;;;;;30.50;18.08;;;9.80;99.90;;;;;;6243192;23;20051;-85
2022/10/23 05:47:52;;;;;;;30.08;17.23;;;9.80;99.90;;;;;;6242776;23;20016;-85
2022/10/23 05:50:18;;;;;;;30.60;17.25;;;9.80;99.90;;;;;;6241365;23;20016;-84
2022/10/23 05:52:47;;;;;;;26.13;17.08;;;9.80;99.90;;;;;;6241790;23;20020;-85
2022/10/23 05:55:14;;;;;;;26.80;16.65;;;9.80;99.90;;;;;;6241725;23;20047;-85
2022/10/23 05:57:40;;;;;;;27.83;17.25;;;9.80;99.90;;;;;;6240060;23;20047;-84
2022/10/23 06:00:06;;;;;;;28.38;17.45;;;9.70;99.90;;;;;;6216455;23;20090;-83
2022/10/23 06:02:32;;;;;;;29.25;16.85;;;9.70;99.90;;;;;;6217449;23;20015;-85
2022/10/23 06:04:58;;;;;;;25.60;16.85;;;9.70;99.90;;;;;;6244395;22;20008;-84
2022/10/23 06:07:28;;;;;;;29.13;17.55;;;9.70;99.90;;;;;;6243077;23;20439;-85
2022/10/23 06:09:55;;;;;;;27.73;16.85;;;9.70;99.90;;;;;;6243154;23;20091;-85
2022/10/23 06:12:21;;;;;;;26.35;16.80;;;9.70;99.90;;;;;;6242452;23;20027;-85
2022/10/23 06:14:48;;;;;;;28.77;16.45;;;9.70;99.90;;;;;;6245261;22;20062;-85
2022/10/23 06:17:14;;;;;;;30.17;17.02;;;9.80;99.90;;;;;;6246017;22;20031;-85
2022/10/23 06:19:39;;;;;;;27.58;17.83;;;9.70;99.90;;;;;;6242440;23;20022;-85
2022/10/23 06:22:05;;;;;;;29.40;17.63;;;9.70;99.90;;;;;;6245515;23;20035;-85
2022/10/23 06:24:31;;;;;;;35.20;17.90;;;9.70;99.90;;;;;;6242334;23;20031;-85
2022/10/23 06:26:56;;;;;;;27.20;17.35;;;9.70;99.90;;;;;;6214525;23;20340;-84
2022/10/23 06:29:22;;;;;;;29.55;18.10;;;9.80;99.90;;;;;;6265848;22;20016;-85
2022/10/23 06:31:48;;;;;;;32.53;18.42;;;9.90;99.90;;;;;;6214410;23;20012;-88
2022/10/23 06:34:14;;;;;;;33.40;18.55;;;9.70;99.90;;;;;;6214983;23;20012;-87
2022/10/23 06:36:40;;;;;;;31.88;18.60;;;9.80;99.90;;;;;;6240210;23;20232;-86
2022/10/23 06:39:06;;;;;;;30.25;19.13;;;9.80;99.90;;;;;;6266078;22;20384;-86
2022/10/23 06:41:31;;;;;;;32.80;18.17;;;10.30;99.90;;;;;;6241566;23;20039;-86
2022/10/23 06:43:57;;;;;;;29.88;18.65;;;9.80;99.90;;;;;;6242185;23;20448;-83
2022/10/23 06:46:23;;;;;;;30.27;18.13;;;9.90;99.90;;;;;;6242234;23;20020;-86
2022/10/23 06:48:48;;;;;;;35.20;19.90;;;9.90;99.90;;;;;;6241481;23;20016;-85
2022/10/23 06:51:16;;;;;;;34.38;19.77;;;10.00;99.90;;;;;;6241984;23;20044;-86
2022/10/23 06:53:43;;;;;;;29.23;19.23;;;10.00;99.90;;;;;;6242025;22;20478;-86
2022/10/23 06:56:10;;;;;;;34.60;19.13;;;10.00;99.90;;;;;;6240977;22;20527;-86
2022/10/23 06:58:37;;;;;;;37.40;20.58;;;10.00;99.90;;;;;;6239337;23;20016;-86
2022/10/23 07:01:06;;;;;;;36.75;19.67;;;10.00;99.90;;;;;;6240288;23;20008;-86
2022/10/23 07:03:33;;;;;;;35.03;20.10;;;10.00;99.90;;;;;;6240505;23;20020;-85
2022/10/23 07:06:01;;;;;;;35.63;20.23;;;10.10;99.90;;;;;;6241489;22;20467;-86
2022/10/23 07:08:27;;;;;;;34.30;18.73;;;10.30;99.90;;;;;;6242043;22;20411;-85
2022/10/23 07:10:52;;;;;;;37.90;19.25;;;10.20;99.90;;;;;;6241360;22;20019;-86
2022/10/23 07:13:18;;;;;;;36.28;19.38;;;10.20;99.90;;;;;;6241374;23;20011;-86
2022/10/23 07:15:43;;;;;;;35.05;20.00;;;10.20;99.90;;;;;;6241905;23;20022;-86
2022/10/23 07:18:15;;;;;;;35.97;18.88;;;10.30;99.90;;;;;;6241851;23;20085;-86
2022/10/23 07:20:41;;;;;;;33.40;19.30;;;10.30;99.90;;;;;;6242602;22;20020;-85
2022/10/23 07:23:06;;;;;;;32.70;19.85;;;10.40;99.90;;;;;;6239583;23;20023;-86
2022/10/23 07:25:32;;;;;;;31.48;19.25;;;10.40;99.90;;;;;;6241965;23;20008;-86
2022/10/23 07:27:58;;;;;;;33.17;18.80;;;10.40;99.90;;;;;;6239551;23;20024;-86
2022/10/23 07:30:23;;;;;;;29.80;18.30;;;10.50;99.90;;;;;;6239703;23;20034;-85
2022/10/23 07:32:49;;;;;;;33.90;19.48;;;10.50;99.90;;;;;;6240094;23;20024;-85
2022/10/23 07:35:15;;;;;;;29.17;18.23;;;10.60;99.90;;;;;;6240249;23;20024;-86
2022/10/23 07:37:41;;;;;;;31.25;18.02;;;10.60;99.90;;;;;;6239701;23;20091;-86
2022/10/23 07:40:07;;;;;;;31.20;18.33;;;10.60;99.90;;;;;;6241317;23;20336;-86
2022/10/23 07:42:33;;;;;;;34.95;17.83;;;10.70;99.90;;;;;;6240879;23;20467;-86
2022/10/23 07:44:58;;;;;;;26.08;17.33;;;10.70;99.90;;;;;;6242722;22;20015;-85
2022/10/23 07:47:24;;;;;;;25.38;17.58;;;10.70;99.90;;;;;;6240166;23;20008;-86
2022/10/23 07:49:50;;;;;;;29.30;17.02;;;11.00;99.90;;;;;;6240018;23;20031;-86
2022/10/23 07:52:15;;;;;;;32.95;18.38;;;10.80;99.90;;;;;;6239492;23;20066;-86
2022/10/23 07:54:41;;;;;;;30.85;17.17;;;10.80;99.90;;;;;;6239805;23;20023;-86
2022/10/23 07:57:06;;;;;;;27.13;16.30;;;10.90;99.90;;;;;;6242227;23;20008;-85
2022/10/23 07:59:33;;;;;;;24.77;16.00;;;10.90;99.90;;;;;;6241330;23;20337;-85
2022/10/23 08:01:59;;;;;;;22.45;15.40;;;10.90;99.90;;;;;;6239991;23;20008;-86
2022/10/23 08:04:25;;;;;;;28.52;16.10;;;11.00;99.90;;;;;;6241318;23;20011;-86
2022/10/23 08:06:50;;;;;;;30.33;15.48;;;11.00;99.90;;;;;;6240832;22;20091;-85
2022/10/23 08:09:16;;;;;;;24.75;15.10;;;11.00;99.90;;;;;;6241224;23;20098;-86
2022/10/23 08:11:41;;;;;;;22.45;14.20;;;11.10;99.90;;;;;;6239678;23;20397;-85
2022/10/23 08:14:08;;;;;;;24.55;14.85;;;11.10;99.90;;;;;;6239619;23;20008;-86
2022/10/23 08:16:36;;;;;;;23.30;14.52;;;11.10;99.90;;;;;;6239784;23;20440;-86
2022/10/23 08:19:04;;;;;;;24.33;13.95;;;11.60;99.90;;;;;;6239635;23;20090;-86
2022/10/23 08:21:30;;;;;;;25.65;14.93;;;11.20;99.90;;;;;;6239412;23;20011;-85
2022/10/23 08:23:57;;;;;;;33.17;14.00;;;11.20;99.90;;;;;;6239190;23;20087;-86
2022/10/23 08:26:29;;;;;;;24.17;13.57;;;11.30;99.90;;;;;;6239388;23;20016;-86
2022/10/23 08:28:57;;;;;;;28.67;13.55;;;11.30;99.90;;;;;;6239427;23;20016;-86
2022/10/23 08:31:23;;;;;;;19.98;12.80;;;11.40;99.90;;;;;;6241523;22;20016;-86
2022/10/23 08:33:49;;;;;;;26.15;12.63;;;11.40;99.90;;;;;;6239247;23;20519;-85
2022/10/23 08:36:26;;;;;;;21.52;12.45;;;11.50;99.90;;;;;;6239102;23;20403;-85
2022/10/23 08:38:54;;;;;;;21.83;12.15;;;11.60;99.90;;;;;;6213492;23;20024;-86
2022/10/23 08:41:28;;;;;;;17.48;11.15;;;11.60;99.90;;;;;;6214510;23;20287;-85
2022/10/23 08:44:19;;;;;;;24.05;12.13;;;11.70;99.90;;;;;;6239281;23;20013;-85
2022/10/23 08:47:07;;;;;;;17.77;11.50;;;11.80;99.90;;;;;;6239061;23;20012;-86
2022/10/23 08:49:48;;;;;;;21.63;10.85;;;11.90;99.90;;;;;;6238814;23;20040;-86
2022/10/23 08:52:42;;;;;;;16.75;10.55;;;11.90;99.90;;;;;;6238594;23;20022;-86
2022/10/23 08:55:22;;;;;;;19.55;11.18;;;12.00;99.90;;;;;;6241325;22;20460;-85
2022/10/23 08:57:57;;;;;;;26.15;11.98;;;12.10;99.90;;;;;;6239027;23;20067;-86
2022/10/23 09:00:22;;;;;;;20.92;10.90;;;12.20;99.90;;;;;;6241405;23;20016;-86
2022/10/23 09:02:51;;;;;;;23.92;11.30;;;12.20;99.90;;;;;;6239063;23;20038;-85
2022/10/23 09:05:38;;;;;;;18.48;11.23;;;12.20;99.90;;;;;;6239563;23;20046;-85
2022/10/23 09:08:24;;;;;;;21.75;10.23;;;12.30;99.90;;;;;;6238934;23;20061;-86
2022/10/23 09:10:59;;;;;;;18.02;10.40;;;12.40;99.90;;;;;;6239613;23;20336;-85
2022/10/23 09:13:37;;;;;;;;;;;12.40;99.90;;;;;;6240112;23;20016;-86
2022/10/23 09:16:23;;;;;;;16.30;9.35;;;12.50;99.90;;;;;;6241148;23;19922;-86
2022/10/23 09:18:49;;;;;;;20.05;10.20;;;12.60;99.90;;;;;;6240928;23;20012;-85
2022/10/23 09:21:15;;;;;;;19.05;10.70;;;12.60;99.90;;;;;;6238899;23;20499;-86
2022/10/23 09:23:41;;;;;;;18.58;10.10;;;12.70;99.90;;;;;;6239355;23;20019;-85
2022/10/23 09:26:17;;;;;;;23.80;10.45;;;12.70;99.90;;;;;;6238795;23;20012;-86
2022/10/23 09:29:17;;;;;;;22.35;10.35;;;12.80;99.90;;;;;;6238601;23;20089;-86
2022/10/23 09:31:57;;;;;;;18.90;9.60;;;12.90;99.90;;;;;;6235655;23;20035;-85
2022/10/23 09:34:27;;;;;;;16.50;9.35;;;13.00;99.90;;;;;;6239475;23;20034;-86
2022/10/23 09:36:56;;;;;;;15.30;9.18;;;13.10;99.90;;;;;;6255489;22;20343;-86
2022/10/23 09:39:31;;;;;;;17.30;8.80;;;13.20;99.90;;;;;;6246516;22;20012;-85
2022/10/23 09:41:57;;;;;;;13.27;7.43;;;13.30;99.90;;;;;;6273157;22;20030;-85
2022/10/23 09:44:26;;;;;;;20.48;8.43;;;13.30;99.90;;;;;;6273435;22;20042;-85
2022/10/23 09:46:59;;;;;;;12.70;7.38;;;13.40;99.90;;;;;;6273468;22;20432;-86
2022/10/23 09:49:27;;;;;;;14.37;8.00;;;13.50;99.90;;;;;;6246063;22;20008;-85
2022/10/23 09:52:20;;;;;;;18.23;7.93;;;13.50;99.90;;;;;;6245817;22;20054;-86
2022/10/23 09:54:49;;;;;;;15.23;7.35;;;13.50;99.90;;;;;;6246397;22;20022;-85
2022/10/23 09:57:26;;;;;;;15.00;7.80;;;13.60;99.90;;;;;;6273313;22;20037;-86
2022/10/23 09:59:55;;;;;;;20.65;7.63;;;13.70;99.90;;;;;;6273518;22;20082;-85
2022/10/23 10:02:31;;;;;;;16.10;7.93;;;13.70;99.90;;;;;;6272909;22;20440;-85
2022/10/23 10:04:57;;;;;;;13.02;7.10;;;13.70;99.90;;;;;;6245792;22;20095;-86
2022/10/23 10:07:29;;;;;;;12.38;6.70;;;13.80;99.90;;;;;;6273060;22;20047;-86
2022/10/23 10:09:56;;;;;;;17.33;7.18;;;13.80;99.90;;;;;;6246156;22;20400;-86
2022/10/23 10:12:44;;;;;;;15.63;6.70;;;13.80;99.90;;;;;;6272402;22;20495;-86
2022/10/23 10:15:18;;;;;;;12.15;6.45;;;13.90;99.90;;;;;;6245959;22;20728;-85
2022/10/23 10:17:51;;;;;;;12.05;5.80;;;13.90;99.90;;;;;;6245861;22;20428;-86
2022/10/23 10:20:44;;;;;;;13.73;6.60;;;14.00;99.90;;;;;;6245582;22;20482;-86
2022/10/23 10:23:33;;;;;;;16.80;6.07;;;14.10;99.90;;;;;;6273012;22;20434;-86
2022/10/23 10:26:21;;;;;;;9.77;5.82;;;14.10;99.90;;;;;;6245610;22;20478;-85
2022/10/23 10:29:17;;;;;;;10.50;5.60;;;14.20;99.90;;;;;;6220269;22;20020;-86
2022/10/23 10:32:05;;;;;;;14.65;5.78;;;14.30;99.90;;;;;;6273720;22;20012;-86
2022/10/23 10:34:54;;;;;;;12.07;5.82;;;14.40;99.90;;;;;;6245555;22;20023;-86
2022/10/23 10:37:33;;;;;;;13.50;5.00;;;14.60;99.90;;;;;;6244536;22;20019;-86
2022/10/23 10:40:24;;;;;;;21.13;6.03;;;14.70;99.90;;;;;;6245321;22;20019;-86
2022/10/23 10:42:59;;;;;;;12.93;5.40;;;14.80;99.90;;;;;;6272938;22;20008;-86
2022/10/23 10:45:50;;;;;;;13.20;4.95;;;14.90;99.90;;;;;;6273688;22;20012;-86
2022/10/23 10:48:29;;;;;;;13.57;5.53;;;15.00;99.90;;;;;;6244984;22;20016;-85
2022/10/23 10:51:06;;;;;;;11.68;4.78;;;15.00;99.90;;;;;;6273015;22;20429;-86
2022/10/23 10:53:50;;;;;;;11.73;5.32;;;15.10;99.90;;;;;;6219893;22;20333;-86
2022/10/23 10:56:18;;;;;;;10.40;4.90;;;15.10;99.90;;;;;;6246309;22;20058;-86
2022/10/23 10:58:51;;;;;;;13.07;5.43;;;15.20;99.90;;;;;;6272395;22;20015;-86
2022/10/23 11:01:26;;;;;;;12.63;4.95;;;15.20;99.90;;;;;;6273126;22;20444;-86
2022/10/23 11:04:12;;;;;;;11.48;5.18;;;15.20;99.90;;;;;;6244640;22;20034;-86
2022/10/23 11:06:43;;;;;;;13.20;5.10;;;15.20;99.90;;;;;;6272674;22;20016;-86
2022/10/23 11:09:20;;;;;;;11.68;5.30;;;15.30;99.90;;;;;;6272488;22;20019;-86
2022/10/23 11:11:46;;;;;;;14.60;5.40;;;15.30;99.90;;;;;;6273101;22;20047;-86
2022/10/23 11:14:26;;;;;;;12.38;4.82;;;15.30;99.90;;;;;;6272942;22;20016;-86
2022/10/23 11:16:59;;;;;;;11.05;4.82;;;15.40;99.90;;;;;;6244713;22;20046;-86
2022/10/23 11:19:46;;;;;;;15.75;5.72;;;15.40;99.90;;;;;;6273013;22;20011;-86
2022/10/23 11:22:46;;;;;;;14.77;5.00;;;15.40;99.90;;;;;;6272050;22;20055;-86
2022/10/23 11:25:30;;;;;;;11.05;5.32;;;15.40;99.90;;;;;;6272277;22;20371;-86
2022/10/23 11:28:18;;;;;;;10.57;5.30;;;15.40;99.90;;;;;;6245262;22;20020;-86
2022/10/23 11:31:02;;;;;;;11.50;5.07;;;15.40;99.90;;;;;;6271680;22;20047;-86
2022/10/23 11:33:59;;;;;;;9.98;5.20;;;15.40;99.90;;;;;;6272540;22;20015;-86
2022/10/23 11:36:49;;;;;;;9.65;5.35;;;15.40;99.90;;;;;;6272058;22;20011;-86
2022/10/23 11:39:28;;;;;;;10.38;4.90;;;15.40;99.90;;;;;;6272280;22;20012;-85
2022/10/23 11:42:05;;;;;;;16.98;5.22;;;15.40;99.90;;;;;;6272520;22;20489;-85
2022/10/23 11:44:33;;;;;;;12.25;5.00;;;15.40;99.90;;;;;;6272491;22;20035;-86
2022/10/23 11:47:05;;;;;;;11.27;4.97;;;15.40;99.90;;;;;;6271600;22;20012;-86
2022/10/23 11:49:31;;;;;;;15.68;4.85;;;15.40;99.90;;;;;;6272271;22;20022;-85
2022/10/23 11:52:04;;;;;;;13.23;5.68;;;15.30;99.90;;;;;;6272117;22;20020;-86
2022/10/23 11:54:30;;;;;;;9.50;4.63;;;15.30;99.90;;;;;;6272297;22;20019;-86
2022/10/23 11:57:13;;;;;;;10.07;5.30;;;15.30;99.90;;;;;;6244090;22;20016;-86
2022/10/23 11:59:48;;;;;;;9.63;4.68;;;15.30;99.90;;;;;;6245292;22;20127;-86
2022/10/23 12:02:30;;;;;;;10.60;4.80;;;15.30;99.90;;;;;;6245304;22;20498;-86
2022/10/23 12:04:59;;;;;;;14.57;5.20;;;15.30;99.90;;;;;;6219877;22;20012;-86
2022/10/23 12:07:37;;;;;;;11.52;4.82;;;15.30;99.90;;;;;;6271451;22;20467;-86
2022/10/23 12:10:06;;;;;;;11.85;4.53;;;15.30;99.90;;;;;;6272595;22;20016;-86
2022/10/23 12:12:34;;;;;;;11.55;5.00;;;15.30;99.90;;;;;;6272020;22;20012;-86
2022/10/23 12:15:13;;;;;;;11.88;5.32;;;15.40;99.90;;;;;;6271923;22;20012;-86
2022/10/23 12:17:41;;;;;;;11.85;5.18;;;15.40;99.90;;;;;;6271831;22;20011;-85
2022/10/23 12:20:12;;;;;;;12.70;4.88;;;15.40;99.90;;;;;;6272188;22;20033;-86
2022/10/23 12:22:49;;;;;;;13.32;4.78;;;15.50;99.90;;;;;;6271651;22;20509;-86
2022/10/23 12:25:50;;;;;;;11.02;4.22;;;15.50;99.90;;;;;;6272155;22;20054;-85
2022/10/23 12:28:48;;;;;;;10.98;3.83;;;15.50;99.90;;;;;;6272140;22;20015;-86
2022/10/23 12:31:20;;;;;;;9.73;3.75;;;15.50;99.90;;;;;;6272138;22;20472;-86
2022/10/23 12:34:05;;;;;;;10.57;4.10;;;15.60;99.90;;;;;;6244228;22;20343;-86
2022/10/23 12:36:55;;;;;;;7.35;4.05;;;15.70;99.90;;;;;;6271762;22;20032;-86
2022/10/23 12:39:29;;;;;;;11.60;4.05;;;15.70;99.90;;;;;;6244122;22;20028;-86
2022/10/23 12:41:55;;;;;;;15.13;3.92;;;15.80;99.90;;;;;;6272056;22;20336;-86
2022/10/23 12:44:24;;;;;;;11.40;3.78;;;15.80;99.90;;;;;;6271385;22;20538;-86
2022/10/23 12:46:53;;;;;;;12.00;4.45;;;15.80;99.90;;;;;;6271899;22;20054;-86
2022/10/23 12:49:22;;;;;;;11.73;3.90;;;15.80;99.90;;;;;;6271969;22;20065;-85
2022/10/23 12:52:00;;;;;;;10.52;4.00;;;15.90;99.90;;;;;;6271204;22;20015;-86
2022/10/23 12:54:26;;;;;;;8.88;3.83;;;15.60;99.90;;;;;;6219536;22;20011;-85
2022/10/23 12:56:52;;;;;;;13.75;3.55;;;15.80;99.90;;;;;;6271534;22;20018;-86